Tiempo atmosférico en la estación meteorológica de Barbate, Cádiz (4 m.)



Fecha
DESCASC
Temp. máxima en grados centígrados (hora)
DESCASC
Temp. mínima en grados centígrados (hora)
DESCASC
Temp. media en grados centígrados
DESCASC
Racha de viento máxima en m/sg (hora)
DESCASC
Velocidad máxima media en intervalos de 10 minutos(hora)
DESCASC
Precipitaciones diarias en mm
DESCASC
Precipitaciones de 00:00 a 06:00 en mm
DESCASC
Precipitaciones de 06:00 a 12:00 en mm
DESCASC
Precipitaciones de 12:00 a 18:00 en mm
DESCASC
Precipitaciones de 18:00 a 24:00 en mm
DESCASC
23-05-2018 26.4 (18:00) 14.3 (06:30) 20.3 8.61 (14:50) 6.39 (17:30) 0 0 0 0 0
22-05-2018 27.2 (18:50) 14.4 (03:40) 20.8 9.72 (13:50) 6.94 (13:50) 0 0 0 0 0
21-05-2018 21.2 (14:30) 15.1 (08:10) 18.2 11.39 (17:50) 8.61 (17:50) 0 0 0 0 0
20-05-2018 23.3 (15:50) 13.8 (00:00) 18.5 10.83 (14:50) 8.06 (16:10) 0 0 0 0 0
19-05-2018 25.4 (16:20) 16.5 (00:00) 20.9 12.5 (02:10) 8.06 (19:10) 0 0 0 0 0
18-05-2018 24.8 (16:00) 17.1 (00:00) 20.9 13.89 (17:10) 8.61 (16:30) 0 0 0 0 0
17-05-2018 24.7 (15:00) 16.3 (00:00) 20.5 15 (00:20) 10 (17:00) 0 0 0 0 0
16-05-2018 23.6 (14:20) 16.5 (00:00) 20.1 17.78 (17:20) 10.83 (16:40) 0 0 0 0 0
15-05-2018 25.7 (15:00) 13.7 (00:00) 19.7 16.39 (17:50) 10.28 (15:50) 0 0 0 0 0
14-05-2018 22.3 (12:10) 10 (00:00) 16.1 6.94 (14:50) 5 (08:30) 0 0 0 0 0
13-05-2018 24.1 (17:40) 10 (00:00) 17.1 9.72 (16:50) 5.56 (15:10) 0 0 0 0 0
12-05-2018 21.7 (15:20) 16.5 (00:00) 19.1 11.11 (14:50) 7.5 (13:40) 0 0 0 0 0
11-05-2018 21.3 (14:20) 12.3 (02:10) 16.8 7.5 (16:50) 5.83 (17:00) 0 0 0 0 0
10-05-2018 20.6 (18:40) 14 (00:00) 17.3 11.39 (06:50) 8.61 (04:50) 0 0 0 0 0
09-05-2018 19.8 (17:50) 17 (00:00) 18.4 12.22 (10:50) 8.61 (06:10) 0 0 0 0 0
08-05-2018 20.6 (18:40) 12.9 (00:00) 16.8 9.72 (17:50) 7.78 (17:40) 0 0 0 0 0
07-05-2018 23.2 (15:30) 17.1 (00:00) 20.2 17.5 (02:50) 10.83 (02:50) 0 0 0 0 0
06-05-2018 23.1 (15:50) 15.4 (00:00) 19.3 17.78 (13:20) 11.11 (13:20) 0 0 0 0 0
05-05-2018 24.4 (17:00) 11.8 (00:00) 18.1 10.28 (11:20) 6.94 (11:20) 0 0 0 0 0
04-05-2018 20.1 (17:30) 14.1 (00:00) 17.1 13.33 (10:50) 9.17 (09:00) 0 0 0 0 0
03-05-2018 22.2 (14:30) 8.5 (00:00) 15.4 12.22 (18:10) 8.61 (17:20) 0 0 0 0 0
02-05-2018 18.8 (18:40) 7.5 (00:00) 13.1 10.28 (14:50) 7.78 (15:20) 0 0 0 0 0
01-05-2018 18.3 (18:50) 8.4 (05:00) 13.3 11.67 (17:00) 7.78 (16:40) 0 0 0 0 0
30-04-2018 19.2 (14:20) 9.5 (00:00) 14.4 10.83 (15:00) 6.39 (15:20) 0 0 0 0 0
29-04-2018 18 (17:20) 10.4 (00:00) 14.2 13.06 (01:10) 8.89 (16:00) 2.6 1 1.6 0 0
28-04-2018 19.2 (16:40) 12.6 (00:00) 15.9 13.06 (22:40) 9.72 (22:40) 1.6 0 0 0 1.6
27-04-2018 21.8 (19:50) 13.1 (00:00) 17.4 10.28 (16:50) 7.78 (17:10) 0 0 0 0 0
26-04-2018 23 (19:00) 14.3 (00:00) 18.7 8.06 (03:50) 5.56 (04:00) 0 0 0 0 0
25-04-2018 20.9 (17:00) 16.2 (00:00) 18.6 8.33 (12:50) 5.56 (13:00) 0 0 0 0 0
24-04-2018 24.6 (13:50) 14.7 (00:00) 19.7 11.94 (13:20) 9.17 (13:20) 0 0 0 0 0

Gráficas

Temp. máximas Temp. mínimas Temp. medias Precipitaciones Rachas de viento máximas Velocidades máximas media en intervalos de 10 minutos

Datos horarios

Fecha y hora oficial Temperatura (ºC) Velocidad del viento (km/h) Dirección del viento Racha (km/h) Dirección de racha Precipitación (mm) Presión (hPa) Tendencia (hPa) Humedad (%)
2018-05-23 23:00:00 19.5 5 Norte 13 Norte 0 -- -- 75
2018-05-23 22:00:00 20.4 5 Norte 14 Este 0 -- -- 65
2018-05-23 21:00:00 21.4 8 Nordeste 24 Oeste 0 -- -- 57
2018-05-23 20:00:00 23.5 12 Nordeste 21 Este 0 -- -- 50
2018-05-23 19:00:00 25.1 14 Este 27 Este 0 -- -- 46
2018-05-23 18:00:00 26.4 18 Este 31 Este 0 -- -- 41
2018-05-23 17:00:00 26.1 17 Este 29 Este 0 -- -- 45
2018-05-23 16:00:00 25.9 14 Este 28 Este 0 -- -- 46
2018-05-23 15:00:00 23 21 Sur 31 Sur 0 -- -- 68
2018-05-23 14:00:00 23.1 14 Sur 21 Sur 0 -- -- 68
2018-05-23 13:00:00 23 10 Sur 17 Sur 0 -- -- 68
2018-05-23 12:00:00 21.2 5 Sudoeste 10 Sudoeste 0 -- -- 72
2018-05-23 11:00:00 20.6 4 Sudoeste 9 Oeste 0 -- -- 80
2018-05-23 10:00:00 18.6 4 Noroeste 13 Norte 0 -- -- 81
2018-05-23 09:00:00 16.4 3 Norte 11 Nordeste 0 -- -- 87
2018-05-23 08:00:00 14.9 6 Norte 11 Nordeste 0 -- -- 91
2018-05-23 07:00:00 14.6 6 Nordeste 8 Nordeste 0 -- -- 93
2018-05-23 06:00:00 15.1 5 Nordeste 8 Norte 0 -- -- 89
2018-05-23 05:00:00 15.6 6 Norte 11 Norte 0 -- -- 90
2018-05-23 04:00:00 15.7 8 Norte 15 Norte 0 -- -- 92
2018-05-23 03:00:00 15.7 7 Norte 12 Norte 0 -- -- 93
2018-05-23 02:00:00 17 6 Norte 10 Norte 0 -- -- 90
2018-05-23 01:00:00 17.5 4 Norte 7 Norte 0 -- -- 87
2018-05-23 00:00:00 18.5 3 Norte 11 Nordeste 0 -- -- 82
2018-05-22 23:00:00 19.2 8 Nordeste 11 Norte 0 -- -- 79
2018-05-22 22:00:00 20.5 6 Norte 14 Noroeste 0 -- -- 74
2018-05-22 21:00:00 21.7 7 Oeste 12 Sudoeste 0 -- -- 76
2018-05-22 20:00:00 24 9 Sudoeste 21 Oeste 0 -- -- 70
2018-05-22 19:00:00 25.1 12 Oeste 22 Noroeste 0 -- -- 64
2018-05-22 18:00:00 26.3 13 Noroeste 22 Oeste 0 -- -- 58
2018-05-22 17:00:00 24.6 15 Oeste 31 Oeste 0 -- -- 65
2018-05-22 16:00:00 23.5 17 Oeste 23 Oeste 0 -- -- 71
2018-05-22 15:00:00 21.9 19 Oeste 28 Oeste 0 -- -- 74
2018-05-22 14:00:00 20 24 Oeste 35 Sudoeste 0 -- -- 78
2018-05-22 13:00:00 19.8 19 Oeste 25 Oeste 0 -- -- 75
2018-05-22 12:00:00 19.7 10 Oeste 16 Sudoeste 0 -- -- 74
2018-05-22 11:00:00 20 3 Sudoeste 15 Nordeste 0 -- -- 73
2018-05-22 10:00:00 17.7 4 Nordeste 10 Nordeste 0 -- -- 81
2018-05-22 09:00:00 15.7 4 Nordeste 10 Norte 0 -- -- 91
2018-05-22 08:00:00 14.9 6 Norte 10 Nordeste 0 -- -- 94
2018-05-22 07:00:00 14.6 6 Norte 10 Norte 0 -- -- 93
2018-05-22 06:00:00 14.5 4 Norte 10 Nordeste 0 -- -- 93
2018-05-22 05:00:00 14.6 4 Norte 8 Norte 0 -- -- 93
2018-05-22 04:00:00 14.4 4 Norte 9 Norte 0 -- -- 92
2018-05-22 03:00:00 14.8 5 Norte 9 Nordeste 0 -- -- 90
2018-05-22 02:00:00 16.2 4 Norte 10 Noroeste 0 -- -- 83
2018-05-22 01:00:00 16.6 4 Noroeste 9 Noroeste 0 -- -- 83
2018-05-22 00:00:00 16.9 7 Noroeste 11 Oeste 0 -- -- 83
2018-05-21 23:00:00 17 6 Oeste 10 Noroeste 0 -- -- 83
2018-05-21 22:00:00 17 6 Oeste 20 Oeste 0 -- -- 83
2018-05-21 21:00:00 17.9 14 Oeste 23 Oeste 0 -- -- 82
2018-05-21 20:00:00 19.1 20 Oeste 30 Oeste 0 -- -- 81
2018-05-21 19:00:00 19.9 24 Oeste 35 Oeste 0 -- -- 78
2018-05-21 18:00:00 19.8 30 Oeste 41 Oeste 0 -- -- 81
2018-05-21 17:00:00 20.1 30 Oeste 41 Oeste 0 -- -- 83
2018-05-21 16:00:00 20.9 24 Oeste 29 Oeste 0 -- -- 82
2018-05-21 15:00:00 21.2 13 Sudoeste 17 Oeste 0 -- -- 79
2018-05-21 14:00:00 21 14 Sudoeste 18 Sudoeste 0 -- -- 80
2018-05-21 13:00:00 19.5 14 Sudoeste 18 Sudoeste 0 -- -- 85
2018-05-21 12:00:00 20.5 12 Sudoeste 19 Sudoeste 0 -- -- 80
2018-05-21 11:00:00 19.4 12 Sur 17 Sur 0 -- -- 84
2018-05-21 10:00:00 19 13 Sur 15 Sur 0 -- -- 85
2018-05-21 09:00:00 16.5 0 Calma 6 Norte 0 -- -- 90
2018-05-21 08:00:00 15.2 3 Nordeste 6 Nordeste 0 -- -- 89
2018-05-21 07:00:00 15.7 0 Calma 4 Nordeste 0 -- -- 88
2018-05-21 06:00:00 15.6 2 Nordeste 10 Norte 0 -- -- 87
2018-05-21 05:00:00 15.4 6 Norte 12 Norte 0 -- -- 87
2018-05-21 04:00:00 15.5 6 Norte 12 Norte 0 -- -- 87
2018-05-21 03:00:00 15.8 6 Norte 14 Norte 0 -- -- 84
2018-05-21 02:00:00 16.1 9 Norte 15 Norte 0 -- -- 84
2018-05-21 01:00:00 16.4 6 Norte 10 Norte 0 -- -- 86
2018-05-21 00:00:00 17 6 Nordeste 9 Norte 0 -- -- 83
2018-05-20 23:00:00 18.1 6 Noroeste 13 Oeste 0 -- -- 80
2018-05-20 22:00:00 18.5 12 Sudoeste 21 Sur 0 -- -- 84
2018-05-20 21:00:00 21.6 10 Sur 22 Este 0 -- -- 66
2018-05-20 20:00:00 22.6 16 Nordeste 29 Nordeste 0 -- -- 64
2018-05-20 19:00:00 23.2 10 Norte 26 Oeste 0 -- -- 58
2018-05-20 18:00:00 21.7 22 Oeste 36 Oeste 0 -- -- 63
2018-05-20 17:00:00 23 27 Sur 35 Sur 0 -- -- 63
2018-05-20 16:00:00 23.2 27 Sur 37 Sur 0 -- -- 63
2018-05-20 15:00:00 23.1 27 Sur 39 Sur 0 -- -- 63
2018-05-20 14:00:00 22.7 23 Sur 29 Sur 0 -- -- 67
2018-05-20 13:00:00 22.6 14 Sur 19 Sur 0 -- -- 71
2018-05-20 12:00:00 21.7 10 Sudoeste 12 Sudoeste 0 -- -- 75
2018-05-20 11:00:00 19.6 9 Sudoeste 13 Sudoeste 0 -- -- 76
2018-05-20 10:00:00 19.2 3 Sudeste 9 Sudeste 0 -- -- 75
2018-05-20 09:00:00 15.8 6 Nordeste 10 Norte 0 -- -- 84
2018-05-20 08:00:00 14 3 Norte 9 Norte 0 -- -- 89
2018-05-20 07:00:00 14 5 Norte 9 Norte 0 -- -- 88
2018-05-20 06:00:00 14.8 7 Norte 13 Norte 0 -- -- 82
2018-05-20 05:00:00 14.7 8 Norte 18 Norte 0 -- -- 82
2018-05-20 04:00:00 15.2 8 Norte 16 Norte 0 -- -- 80
2018-05-20 03:00:00 15.6 9 Norte 14 Norte 0 -- -- 77
2018-05-20 02:00:00 16.4 9 Norte 13 Norte 0 -- -- 73
2018-05-20 01:00:00 16.8 4 Norte 12 Norte 0 -- -- 74
2018-05-20 00:00:00 17.5 6 Nordeste 23 Nordeste 0 -- -- 69
2018-05-19 23:00:00 18.2 10 Nordeste 18 Sudeste 0 -- -- 65
2018-05-19 22:00:00 19.7 19 Sudeste 34 Este 0 -- -- 59
2018-05-19 21:00:00 20.4 27 Este 35 Nordeste 0 -- -- 60
2018-05-19 20:00:00 23 25 Este 41 Este 0 -- -- 55
2018-05-19 19:00:00 24.8 24 Este 34 Este 0 -- -- 50
2018-05-19 18:00:00 25.2 18 Este 34 Este 0 -- -- 51
2018-05-19 17:00:00 25 17 Sudeste 30 Sur 0 -- -- 55
2018-05-19 16:00:00 25 21 Este 37 Este 0 -- -- 53
2018-05-19 15:00:00 25 23 Este 38 Este 0 -- -- 51
2018-05-19 14:00:00 24.1 25 Este 43 Este 0 -- -- 50
2018-05-19 13:00:00 23.4 26 Este 44 Este 0 -- -- 56
2018-05-19 12:00:00 23.1 22 Este 37 Este 0 -- -- 58
2018-05-19 11:00:00 22 17 Este 35 Sudeste 0 -- -- 59
2018-05-19 10:00:00 20.6 18 Este 34 Sudeste 0 -- -- 62
2018-05-19 09:00:00 18.5 10 Nordeste 29 Este 0 -- -- 73
2018-05-19 08:00:00 16.8 4 Norte 18 Nordeste 0 -- -- 81
2018-05-19 07:00:00 16.7 6 Norte 21 Nordeste 0 -- -- 79
2018-05-19 06:00:00 16.8 10 Norte 30 Nordeste 0 -- -- 81
2018-05-19 05:00:00 17.1 17 Nordeste 35 Nordeste 0 -- -- 77
2018-05-19 04:00:00 17.1 15 Norte 35 Norte 0 -- -- 78
2018-05-19 03:00:00 17.3 14 Norte 45 Nordeste 0 -- -- 74
2018-05-19 02:00:00 18.1 11 Nordeste 38 Este 0 -- -- 67
2018-05-19 01:00:00 17.2 16 Norte 34 Noroeste 0 -- -- 78
2018-05-19 00:00:00 17.4 13 Norte 28 Norte 0 -- -- 76
2018-05-18 23:00:00 17.7 13 Norte 25 Norte 0 -- -- 72
2018-05-18 22:00:00 18.3 12 Norte 25 Norte 0 -- -- 69
2018-05-18 21:00:00 20 10 Nordeste 46 Este 0 -- -- 61
2018-05-18 20:00:00 22.1 15 Este 44 Sudeste 0 -- -- 54
2018-05-18 19:00:00 24 23 Sudeste 40 Sudeste 0 -- -- 49
2018-05-18 18:00:00 24.3 24 Este 50 Este 0 -- -- 47
2018-05-18 17:00:00 24.3 29 Sudeste 48 Sudeste 0 -- -- 44
2018-05-18 16:00:00 24.8 28 Sudeste 41 Este 0 -- -- 48
2018-05-18 15:00:00 24 21 Este 43 Este 0 -- -- 54
2018-05-18 14:00:00 23.2 24 Este 42 Este 0 -- -- 58
2018-05-18 13:00:00 23.4 22 Este 38 Este 0 -- -- 59
2018-05-18 12:00:00 22.9 17 Este 34 Este 0 -- -- 64
2018-05-18 11:00:00 21.4 15 Este 34 Este 0 -- -- 68
2018-05-18 10:00:00 18.4 25 Este 42 Sudeste 0 -- -- 78
2018-05-18 09:00:00 18.2 23 Este 37 Este 0 -- -- 75
2018-05-18 08:00:00 17.7 19 Este 28 Este 0 -- -- 75
2018-05-18 07:00:00 17.4 19 Este 43 Este 0 -- -- 76
2018-05-18 06:00:00 17.2 25 Este 41 Este 0 -- -- 79
2018-05-18 05:00:00 17.5 19 Este 29 Sudeste 0 -- -- 78
2018-05-18 04:00:00 17.2 6 Este 24 Nordeste 0 -- -- 82
2018-05-18 03:00:00 17.2 14 Nordeste 28 Nordeste 0 -- -- 83
2018-05-18 02:00:00 17.3 18 Nordeste 26 Este 0 -- -- 83
2018-05-18 01:00:00 17.5 14 Nordeste 27 Nordeste 0 -- -- 82
2018-05-18 00:00:00 18 14 Este 31 Nordeste 0 -- -- 80
2018-05-17 23:00:00 17.8 11 Nordeste 33 Nordeste 0 -- -- 82
2018-05-17 22:00:00 18.1 13 Nordeste 44 Este 0 -- -- 79
2018-05-17 21:00:00 19.6 21 Este 41 Este 0 -- -- 70
2018-05-17 20:00:00 20.9 24 Este 44 Este 0 -- -- 66
2018-05-17 19:00:00 22.7 21 Este 42 Este 0 -- -- 62
2018-05-17 18:00:00 22.7 25 Sudeste 39 Este 0 -- -- 65
2018-05-17 17:00:00 20.7 36 Sur 50 Sur 0 -- -- 74
2018-05-17 16:00:00 23.5 30 Sudeste 40 Sudeste 0 -- -- 61
2018-05-17 15:00:00 24.7 23 Sudeste 41 Sudeste 0 -- -- 57
2018-05-17 14:00:00 23.9 27 Sudeste 50 Sudeste 0 -- -- 58
2018-05-17 13:00:00 23.5 24 Sudeste 38 Sudeste 0 -- -- 60
2018-05-17 12:00:00 23.3 19 Sudeste 36 Este 0 -- -- 60
2018-05-17 11:00:00 22.6 24 Sudeste 36 Sudeste 0 -- -- 57
2018-05-17 10:00:00 21.4 17 Sudeste 26 Este 0 -- -- 59
2018-05-17 09:00:00 19.6 13 Este 26 Sudeste 0 -- -- 65
2018-05-17 08:00:00 17.1 13 Este 24 Este 0 -- -- 74
2018-05-17 07:00:00 16.3 12 Este 21 Este 0 -- -- 78
2018-05-17 06:00:00 17.2 8 Sudeste 27 Este 0 -- -- 75
2018-05-17 05:00:00 18.1 20 Este 39 Este 0 -- -- 69
2018-05-17 04:00:00 17.8 22 Este 51 Este 0 -- -- 74
2018-05-17 03:00:00 17.2 16 Nordeste 27 Sudeste 0 -- -- 79
2018-05-17 02:00:00 17.3 13 Nordeste 38 Este 0 -- -- 78
2018-05-17 01:00:00 17.7 27 Este 54 Este 0 -- -- 76
2018-05-17 00:00:00 17.8 19 Este 46 Este 0 -- -- 73
2018-05-16 23:00:00 17.4 13 Nordeste 24 Nordeste 0 -- -- 76
2018-05-16 22:00:00 17.9 10 Este 29 Este 0 -- -- 72
2018-05-16 21:00:00 19.3 17 Este 39 Este 0 -- -- 68
2018-05-16 20:00:00 21.3 17 Este 43 Este 0 -- -- 57
2018-05-16 19:00:00 22.3 26 Este 53 Este 0 -- -- 50
2018-05-16 18:00:00 22.3 35 Este 64 Este 0 -- -- 53
2018-05-16 17:00:00 23.1 33 Este 59 Este 0 -- -- 52
2018-05-16 16:00:00 23.2 35 Este 56 Este 0 -- -- 54
2018-05-16 15:00:00 23.3 32 Este 62 Este 0 -- -- 53
2018-05-16 14:00:00 23.5 29 Este 54 Este 0 -- -- 49
2018-05-16 13:00:00 22.8 32 Este 62 Este 0 -- -- 51
2018-05-16 12:00:00 22.2 29 Este 52 Este 0 -- -- 54
2018-05-16 11:00:00 21.9 20 Este 42 Sudeste 0 -- -- 53
2018-05-16 10:00:00 20.7 13 Este 27 Este 0 -- -- 54
2018-05-16 09:00:00 18.4 6 Nordeste 20 Nordeste 0 -- -- 63
2018-05-16 08:00:00 17 11 Norte 30 Este 0 -- -- 72
2018-05-16 07:00:00 16.5 12 Nordeste 29 Este 0 -- -- 74
2018-05-16 06:00:00 16.9 15 Nordeste 27 Nordeste 0 -- -- 72
2018-05-16 05:00:00 16.9 15 Nordeste 33 Nordeste 0 -- -- 71
2018-05-16 04:00:00 16.7 22 Nordeste 40 Nordeste 0 -- -- 75
2018-05-16 03:00:00 16.6 26 Nordeste 37 Nordeste 0 -- -- 79
2018-05-16 02:00:00 17.4 13 Norte 31 Nordeste 0 -- -- 67
2018-05-16 01:00:00 17.8 17 Nordeste 42 Nordeste 0 -- -- 61
2018-05-16 00:00:00 18.4 25 Nordeste 48 Nordeste 0 -- -- 54
2018-05-15 23:00:00 18.5 13 Norte 23 Norte 0 -- -- 53
2018-05-15 22:00:00 18.6 15 Nordeste 35 Nordeste 0 -- -- 53
2018-05-15 21:00:00 20.2 24 Nordeste 38 Este 0 -- -- 49
2018-05-15 20:00:00 23.1 21 Este 34 Este 0 -- -- 42
2018-05-15 19:00:00 24.9 21 Este 41 Este 0 -- -- 33
2018-05-15 18:00:00 24.7 27 Este 59 Este 0 -- -- 33
2018-05-15 17:00:00 24.8 36 Este 51 Este 0 -- -- 32
2018-05-15 16:00:00 25.2 34 Este 55 Este 0 -- -- 32
2018-05-15 15:00:00 25.7 30 Este 49 Este 0 -- -- 30
2018-05-15 14:00:00 25.3 26 Este 44 Este 0 -- -- 33
2018-05-15 13:00:00 24.9 21 Este 40 Este 0 -- -- 33
2018-05-15 12:00:00 24.3 21 Este 36 Este 0 -- -- 39
2018-05-15 11:00:00 22.9 8 Nordeste 26 Nordeste 0 -- -- 39
2018-05-15 10:00:00 20.8 20 Nordeste 28 Nordeste 0 -- -- 45
2018-05-15 09:00:00 17.7 17 Nordeste 30 Nordeste 0 -- -- 62
2018-05-15 08:00:00 14.2 7 Norte 14 Norte 0 -- -- 71
2018-05-15 07:00:00 14 8 Norte 14 Norte 0 -- -- 73
2018-05-15 06:00:00 14.8 10 Norte 17 Norte 0 -- -- 72
2018-05-15 05:00:00 15.2 10 Norte 18 Nordeste 0 -- -- 68
2018-05-15 04:00:00 14.7 7 Noroeste 13 Nordeste 0 -- -- 69
2018-05-15 03:00:00 14.3 7 Norte 14 Norte 0 -- -- 68
2018-05-15 02:00:00 13.7 8 Nordeste 12 Norte 0 -- -- 78
2018-05-15 01:00:00 15 6 Norte 12 Norte 0 -- -- 71
2018-05-15 00:00:00 15.9 6 Norte 12 Norte 0 -- -- 66
2018-05-14 23:00:00 16.5 5 Norte 9 Nordeste 0 -- -- 71
2018-05-14 22:00:00 18.5 0 Calma 13 Sudoeste 0 -- -- 66
2018-05-14 21:00:00 20.2 10 Sudoeste 17 Sudoeste 0 -- -- 64
2018-05-14 20:00:00 21 12 Sudoeste 19 Sudoeste 0 -- -- 70
2018-05-14 19:00:00 21.6 14 Sudoeste 18 Sudoeste 0 -- -- 67
2018-05-14 18:00:00 21.9 15 Sudoeste 17 Sudoeste 0 -- -- 71
2018-05-14 17:00:00 21.6 14 Sudoeste 19 Sudoeste 0 -- -- 71
2018-05-14 16:00:00 21.3 15 Sudoeste 23 Sudoeste 0 -- -- 68
2018-05-14 15:00:00 20.6 16 Sudoeste 25 Sudoeste 0 -- -- 64
2018-05-14 14:00:00 20.5 16 Sudoeste 22 Sudoeste 0 -- -- 65
2018-05-14 13:00:00 20.1 13 Sudoeste 20 Sudoeste 0 -- -- 67
2018-05-14 12:00:00 22.1 6 Nordeste 15 Nordeste 0 -- -- 39
2018-05-14 11:00:00 19.9 7 Nordeste 17 Nordeste 0 -- -- 50
2018-05-14 10:00:00 16.5 13 Nordeste 16 Nordeste 0 -- -- 62
2018-05-14 09:00:00 13.8 14 Nordeste 22 Nordeste 0 -- -- 70
2018-05-14 08:00:00 10.5 14 Nordeste 20 Nordeste 0 -- -- 87
2018-05-14 07:00:00 10.4 8 Nordeste 14 Nordeste 0 -- -- 85
2018-05-14 06:00:00 11.1 11 Nordeste 16 Nordeste 0 -- -- 79
2018-05-14 05:00:00 12 7 Norte 13 Norte 0 -- -- 79
2018-05-14 04:00:00 12.9 6 Norte 12 Norte 0 -- -- 76
2018-05-14 03:00:00 13.1 6 Norte 11 Norte 0 -- -- 79
2018-05-14 02:00:00 13.6 8 Norte 14 Nordeste 0 -- -- 80
2018-05-14 01:00:00 14 13 Nordeste 15 Nordeste 0 -- -- 74
2018-05-11 20:00:00 -- -- -- -- -- -- -- -- --
2018-05-11 19:00:00 19.8 17 Oeste 24 Oeste 0 -- -- 73
2018-05-11 18:00:00 20.2 18 Oeste 24 Sudoeste 0 -- -- 75
2018-05-11 17:00:00 20 21 Oeste 27 Sudoeste 0 -- -- 75
2018-05-11 16:00:00 20.2 18 Sudoeste 23 Sudoeste 0 -- -- 73
2018-05-11 15:00:00 20.9 12 Sudoeste 15 Sudoeste 0 -- -- 71
2018-05-11 14:00:00 21 10 Sur 14 Sudoeste 0 -- -- 71
2018-05-11 13:00:00 20.2 12 Sur 15 Sur 0 -- -- 73
2018-05-11 12:00:00 19.1 10 Sur 15 Sudoeste 0 -- -- 80
2018-05-11 11:00:00 18.2 4 Sudoeste 8 Sudoeste 0 -- -- 81
2018-05-11 10:00:00 16.3 2 Nordeste 8 Norte 0 -- -- 90
2018-05-11 09:00:00 13.9 6 Norte 9 Norte 0 -- -- 94
2018-05-11 08:00:00 12.9 5 Norte 9 Norte 0 -- -- 96
2018-05-11 07:00:00 12.6 4 Norte 12 Norte 0 -- -- 96
2018-05-11 06:00:00 12.7 6 Norte 11 Nordeste 0 -- -- 95
2018-05-11 05:00:00 13 6 Norte 10 Norte 0 -- -- 94
2018-05-11 04:00:00 12.8 6 Norte 9 Norte 0 -- -- 95
2018-05-11 03:00:00 12.6 5 Norte 9 Norte 0 -- -- 95
2018-05-11 02:00:00 12.4 5 Norte 7 Norte 0 -- -- 94
2018-05-11 01:00:00 13.3 4 Nordeste 6 Este 0 -- -- 93
2018-05-11 00:00:00 14 5 Nordeste 9 Nordeste 0 -- -- 91
2018-05-10 23:00:00 15.1 3 Norte 9 Noroeste 0 -- -- 85
2018-05-10 22:00:00 16 4 Norte 12 Noroeste 0 -- -- 82
2018-05-10 21:00:00 17.8 6 Noroeste 19 Oeste 0 -- -- 75
2018-05-10 20:00:00 18.5 17 Oeste 26 Oeste 0 -- -- 81
2018-05-10 19:00:00 19.5 19 Oeste 26 Sudoeste 0 -- -- 78
2018-05-10 18:00:00 19.9 13 Sudoeste 19 Sudoeste 0 -- -- 77
2018-05-10 17:00:00 19 14 Oeste 27 Sudoeste 0 -- -- 83
2018-05-10 16:00:00 18.3 27 Sudoeste 37 Oeste 0 -- -- 87
2018-05-10 15:00:00 18.1 23 Sudoeste 29 Sudoeste 0 -- -- 88
2018-05-10 14:00:00 17.4 25 Sudoeste 36 Sudoeste 0 -- -- 87
2018-05-10 13:00:00 16.9 27 Sudoeste 34 Sudoeste 0 -- -- 90
2018-05-10 12:00:00 17.1 27 Sudoeste 40 Sudoeste 0 -- -- 90
2018-05-10 11:00:00 16.6 20 Oeste 39 Sudoeste 0 -- -- 91
2018-05-10 10:00:00 16.7 25 Sudoeste 35 Sudoeste 0 -- -- 90
2018-05-10 09:00:00 16.7 27 Sudoeste 35 Sudoeste 0 -- -- 91
2018-05-10 08:00:00 16.7 27 Sudoeste 36 Sudoeste 0 -- -- 92
2018-05-10 07:00:00 16.6 28 Sudoeste 41 Sudoeste 0 -- -- 94
2018-05-10 06:00:00 16.6 28 Sudoeste 38 Sudoeste 0 -- -- 95
2018-05-10 05:00:00 16.6 29 Sudoeste 38 Sudoeste 0 -- -- 94
2018-05-10 04:00:00 16.7 27 Sudoeste 39 Sudoeste 0 -- -- 93
2018-05-10 03:00:00 17.1 26 Sudoeste 32 Sudoeste 0 -- -- 90
2018-05-10 02:00:00 17.1 18 Oeste 28 Sudoeste 0 -- -- 90
2018-05-10 01:00:00 17.2 17 Sudoeste 28 Sudoeste 0 -- -- 89
2018-05-10 00:00:00 17.2 18 Sudoeste 26 Sudoeste 0 -- -- 86
2018-05-09 23:00:00 17.2 18 Oeste 23 Oeste 0 -- -- 88
2018-05-09 22:00:00 17.1 17 Sudoeste 26 Sudoeste 0 -- -- 90
2018-05-09 21:00:00 17.4 19 Oeste 27 Oeste 0 -- -- 87
2018-05-09 20:00:00 18 21 Oeste 30 Oeste 0 -- -- 85
2018-05-09 19:00:00 19.1 19 Oeste 32 Oeste 0 -- -- 85
2018-05-09 18:00:00 19.6 22 Oeste 30 Oeste 0 -- -- 84
2018-05-09 17:00:00 19.6 23 Oeste 31 Oeste 0 -- -- 84
2018-05-09 16:00:00 19.3 24 Oeste 35 Sudoeste 0 -- -- 88
2018-05-09 15:00:00 19.1 26 Oeste 36 Sudoeste 0 -- -- 88
2018-05-09 14:00:00 19.1 25 Oeste 40 Oeste 0 -- -- 89
2018-05-09 13:00:00 18.9 24 Sudoeste 38 Sudoeste 0 -- -- 87
2018-05-09 12:00:00 18.4 24 Sudoeste 32 Oeste 0 -- -- 91
2018-05-09 11:00:00 18.2 23 Sudoeste 44 Sudoeste 0 -- -- 90
2018-05-09 10:00:00 18.4 26 Sudoeste 41 Sudoeste 0 -- -- 88
2018-05-09 09:00:00 17.7 26 Sudoeste 43 Sudoeste 0 -- -- 89
2018-05-09 08:00:00 17.2 28 Sudoeste 35 Sudoeste 0 -- -- 91
2018-05-09 07:00:00 17.2 26 Sudoeste 41 Sudoeste 0 -- -- 91
2018-05-09 06:00:00 17.2 27 Sudoeste 36 Sudoeste 0 -- -- 90
2018-05-09 05:00:00 17.2 26 Sudoeste 33 Sudoeste 0 -- -- 91
2018-05-09 04:00:00 17.2 25 Sudoeste 42 Sudoeste 0 -- -- 91
2018-05-09 03:00:00 17.1 23 Sudoeste 36 Sudoeste 0 -- -- 91
2018-05-09 02:00:00 17.1 22 Sudoeste 36 Sudoeste 0 -- -- 92
2018-05-09 01:00:00 17.1 22 Sudoeste 31 Sudoeste 0 -- -- 92
2018-05-09 00:00:00 17.1 22 Sudoeste 27 Sudoeste 0 -- -- 93
2018-05-08 23:00:00 17.2 20 Sudoeste 26 Sudoeste 0 -- -- 93
2018-05-08 22:00:00 17.3 15 Oeste 23 Sudoeste 0 -- -- 94
2018-05-08 21:00:00 17.6 17 Oeste 26 Sudoeste 0 -- -- 93
2018-05-08 20:00:00 19.1 19 Sudoeste 30 Sudoeste 0 -- -- 89
2018-05-08 19:00:00 20 21 Sudoeste 31 Oeste 0 -- -- 87
2018-05-08 18:00:00 20 26 Oeste 35 Oeste 0 -- -- 88
2018-05-08 17:00:00 20.2 24 Oeste 33 Oeste 0 -- -- 86
2018-05-08 16:00:00 20 24 Oeste 35 Oeste 0 -- -- 86
2018-05-08 15:00:00 20.1 19 Sudoeste 27 Sudoeste 0 -- -- 86
2018-05-08 14:00:00 19.8 21 Sudoeste 24 Oeste 0 -- -- 88
2018-05-08 13:00:00 19.4 21 Oeste 26 Sudoeste 0 -- -- 89
2018-05-08 12:00:00 20 14 Sudoeste 16 Sudoeste 0 -- -- 84
2018-05-08 11:00:00 19.2 10 Sudoeste 13 Sudoeste 0 -- -- 86
2018-05-08 10:00:00 17.8 3 Noroeste 9 Este 0 -- -- 90
2018-05-08 09:00:00 14.4 5 Norte 11 Norte 0 -- -- 97
2018-05-08 08:00:00 13.3 3 Nordeste 9 Norte 0 -- -- 98
2018-05-08 07:00:00 13.2 6 Nordeste 8 Norte 0 -- -- 97
2018-05-08 06:00:00 13.3 5 Nordeste 7 Nordeste 0 -- -- 96
2018-05-08 05:00:00 14.7 4 Norte 6 Norte 0 -- -- 93
2018-05-08 04:00:00 15 4 Norte 8 Norte 0 -- -- 94
2018-05-08 03:00:00 15.5 6 Norte 10 Este 0 -- -- 93
2018-05-08 02:00:00 15.6 10 Nordeste 13 Nordeste 0 -- -- 90
2018-05-08 01:00:00 17.3 4 Norte 13 Oeste 0 -- -- 87
2018-05-08 00:00:00 17.1 5 Noroeste 10 Norte 0 -- -- 80
2018-05-07 23:00:00 17.5 6 Sudoeste 10 Sudoeste 0 -- -- 88
2018-05-07 22:00:00 17.6 4 Norte 9 Sudoeste 0 -- -- 84
2018-05-07 21:00:00 18.6 10 Oeste 19 Sudoeste 0 -- -- 82
2018-05-07 20:00:00 20.9 5 Oeste 22 Este 0 -- -- 70
2018-05-07 19:00:00 21.5 12 Este 20 Sur 0 -- -- 62
2018-05-07 18:00:00 20.9 17 Sur 32 Sur 0 -- -- 71
2018-05-07 17:00:00 20.9 23 Sur 32 Sudeste 0 -- -- 70
2018-05-07 16:00:00 21.1 19 Sur 28 Sur 0 -- -- 71
2018-05-07 15:00:00 21.8 14 Este 29 Sur 0 -- -- 67
2018-05-07 14:00:00 20.2 25 Sur 37 Sur 0 -- -- 74
2018-05-07 13:00:00 21.9 12 Sudeste 37 Este 0 -- -- 67
2018-05-07 12:00:00 21.1 20 Este 34 Este 0 -- -- 66
2018-05-07 11:00:00 20 7 Este 29 Sudeste 0 -- -- 69
2018-05-07 10:00:00 18.2 13 Nordeste 25 Nordeste 0 -- -- 79
2018-05-07 09:00:00 17.9 13 Nordeste 30 Este 0 -- -- 76
2018-05-07 08:00:00 17.9 13 Nordeste 28 Nordeste 0 -- -- 73
2018-05-07 07:00:00 17.4 9 Nordeste 29 Nordeste 0 -- -- 74
2018-05-07 06:00:00 17.5 17 Nordeste 39 Este 0 -- -- 75
2018-05-07 05:00:00 17.6 10 Nordeste 39 Nordeste 0 -- -- 76
2018-05-07 04:00:00 17.6 15 Este 57 Este 0 -- -- 76
2018-05-07 03:00:00 17.5 34 Sudeste 63 Sudeste 0 -- -- 77
2018-05-07 02:00:00 17.4 18 Este 42 Este 0 -- -- 79
2018-05-07 01:00:00 17.2 9 Norte 32 Este 0 -- -- 80
2018-05-07 00:00:00 17.2 12 Nordeste 24 Nordeste 0 -- -- 83
2018-05-06 23:00:00 17.4 9 Norte 26 Nordeste 0 -- -- 82
2018-05-06 22:00:00 17.3 11 Nordeste 26 Nordeste 0 -- -- 80
2018-05-06 21:00:00 18.7 16 Este 38 Este 0 -- -- 75
2018-05-06 20:00:00 20.6 21 Este 46 Este 0 -- -- 66
2018-05-06 19:00:00 21.5 24 Este 45 Este 0 -- -- 64
2018-05-06 18:00:00 22 28 Este 48 Este 0 -- -- 62
2018-05-06 17:00:00 22.6 28 Este 54 Este 0 -- -- 60
2018-05-06 16:00:00 23.1 27 Este 52 Sudeste 0 -- -- 61
2018-05-06 15:00:00 22.4 33 Este 57 Este 0 -- -- 61
2018-05-06 14:00:00 22.2 32 Este 64 Este 0 -- -- 63
2018-05-06 13:00:00 21.6 37 Este 61 Este 0 -- -- 63
2018-05-06 12:00:00 21.1 30 Este 51 Este 0 -- -- 65
2018-05-06 11:00:00 20.5 28 Este 58 Este 0 -- -- 66
2018-05-06 10:00:00 19.3 28 Este 46 Este 0 -- -- 67
2018-05-06 09:00:00 17.5 8 Nordeste 22 Norte 0 -- -- 77
2018-05-06 08:00:00 16 5 Nordeste 20 Este 0 -- -- 82
2018-05-06 07:00:00 15.9 4 Norte 23 Sudeste 0 -- -- 83
2018-05-06 06:00:00 15.9 8 Norte 29 Nordeste 0 -- -- 82
2018-05-06 05:00:00 15.7 7 Nordeste 21 Norte 0 -- -- 85
2018-05-06 04:00:00 15.6 10 Norte 20 Norte 0 -- -- 88
2018-05-06 03:00:00 15.6 10 Norte 23 Nordeste 0 -- -- 88
2018-05-06 02:00:00 15.9 13 Norte 23 Norte 0 -- -- 87
2018-05-06 01:00:00 16 9 Norte 21 Noroeste 0 -- -- 87
2018-05-06 00:00:00 16.7 3 Nordeste 27 Nordeste 0 -- -- 81
2018-05-05 23:00:00 16.9 14 Nordeste 30 Nordeste 0 -- -- 78
2018-05-05 22:00:00 18.1 15 Nordeste 27 Nordeste 0 -- -- 67
2018-05-05 21:00:00 21.1 8 Este 19 Este 0 -- -- 56
2018-05-05 20:00:00 22.7 11 Este 28 Este 0 -- -- 52
2018-05-05 19:00:00 23.6 21 Este 31 Este 0 -- -- 48
2018-05-05 18:00:00 23.8 12 Este 26 Este 0 -- -- 50
2018-05-05 17:00:00 24.4 15 Este 30 Este 0 -- -- 51
2018-05-05 16:00:00 24 18 Nordeste 30 Este 0 -- -- 54
2018-05-05 15:00:00 24.2 14 Sudeste 35 Sudeste 0 -- -- 55
2018-05-05 14:00:00 23.4 20 Este 35 Este 0 -- -- 57
2018-05-05 13:00:00 22.2 21 Este 35 Este 0 -- -- 60
2018-05-05 12:00:00 21.4 14 Este 37 Este 0 -- -- 65
2018-05-05 11:00:00 19.9 23 Este 33 Sudeste 0 -- -- 71
2018-05-05 10:00:00 18.4 10 Sudeste 17 Este 0 -- -- 81
2018-05-05 09:00:00 15.3 4 Norte 13 Nordeste 0 -- -- 95
2018-05-05 08:00:00 13 7 Norte 19 Nordeste 0 -- -- 97
2018-05-05 07:00:00 12.5 8 Norte 20 Norte 0 -- -- 97
2018-05-05 06:00:00 11.9 12 Nordeste 20 Norte 0 -- -- 98
2018-05-05 05:00:00 12.1 8 Norte 17 Norte 0 -- -- 99
2018-05-05 04:00:00 11.8 8 Nordeste 13 Norte 0 -- -- 99
2018-05-05 03:00:00 12.2 6 Nordeste 10 Norte 0 -- -- 98
2018-05-05 02:00:00 13.1 5 Norte 10 Nordeste 0 -- -- 98
2018-05-05 01:00:00 13.4 9 Nordeste 13 Nordeste 0 -- -- 97
2018-05-05 00:00:00 14.1 5 Nordeste 11 Norte 0 -- -- 95
2018-05-04 23:00:00 15.3 5 Nordeste 8 Sudeste 0 -- -- 93
2018-05-04 22:00:00 16.6 6 Sudeste 11 Sudeste 0 -- -- 93
2018-05-04 21:00:00 17.4 6 Sur 18 Oeste 0 -- -- 91
2018-05-04 20:00:00 17.7 11 Oeste 15 Oeste 0 -- -- 88
2018-05-04 19:00:00 17.5 9 Oeste 17 Oeste 0 -- -- 89
2018-05-04 18:00:00 18.3 15 Oeste 22 Sudoeste 0 -- -- 86
2018-05-04 17:00:00 19.5 13 Sudoeste 22 Sudoeste 0 -- -- 83
2018-05-04 16:00:00 18.8 19 Sudoeste 32 Sudoeste 0 -- -- 88
2018-05-04 15:00:00 18.1 24 Sudoeste 31 Sudoeste 0 -- -- 88
2018-05-04 14:00:00 18.3 26 Sudoeste 37 Sudoeste 0 -- -- 86
2018-05-04 13:00:00 17.2 28 Sudoeste 42 Sudoeste 0 -- -- 90
2018-05-04 12:00:00 16.8 27 Sudoeste 42 Sudoeste 0 -- -- 93
2018-05-04 11:00:00 16.1 29 Sudoeste 48 Sudoeste 0 -- -- 95
2018-05-04 10:00:00 15.7 27 Sudoeste 39 Sudoeste 0 -- -- 96
2018-05-04 09:00:00 15.8 33 Sur 41 Sudoeste 0 -- -- 96
2018-05-04 08:00:00 15.9 28 Sur 46 Sur 0 -- -- 96
2018-05-04 07:00:00 16.4 21 Sudoeste 31 Sudoeste 0 -- -- 97
2018-05-04 06:00:00 16.3 22 Sudoeste 28 Sur 0 -- -- 97
2018-05-04 05:00:00 16.1 23 Sur 32 Sur 0 -- -- 96
2018-05-04 04:00:00 16.1 27 Sur 32 Sur 0 -- -- 96
2018-05-04 03:00:00 16.5 21 Sur 31 Sur 0 -- -- 95
2018-05-04 02:00:00 15.9 16 Sur 19 Sur 0 -- -- 95
2018-05-04 01:00:00 15.1 4 Sudeste 6 Sudeste 0 -- -- 89
2018-05-04 00:00:00 15.7 5 Sudeste 9 Sudeste 0 -- -- 86
2018-05-03 23:00:00 16.3 0 Calma 10 Noroeste 0 -- -- 83
2018-05-03 22:00:00 16.5 4 Oeste 19 Noroeste 0 -- -- 80
2018-05-03 21:00:00 17.4 6 Oeste 29 Oeste 0 -- -- 77
2018-05-03 20:00:00 18.5 21 Oeste 40 Noroeste 0 -- -- 74
2018-05-03 19:00:00 20 24 Noroeste 44 Oeste 0 -- -- 61
2018-05-03 18:00:00 20.7 27 Noroeste 42 Noroeste 0 -- -- 52
2018-05-03 17:00:00 20.8 30 Noroeste 42 Noroeste 0 -- -- 50
2018-05-03 16:00:00 21.1 30 Noroeste 41 Noroeste 0 -- -- 61
2018-05-03 15:00:00 21.6 25 Noroeste 38 Noroeste 0 -- -- 61
2018-05-03 14:00:00 19.8 11 Sudoeste 41 Sudoeste 0 -- -- 67
2018-05-03 13:00:00 17.7 21 Sudoeste 26 Sudoeste 0 -- -- 76
2018-05-03 12:00:00 16.8 10 Oeste 15 Oeste 0 -- -- 73
2018-05-03 11:00:00 16.7 4 Norte 10 Norte 0 -- -- 64
2018-05-03 10:00:00 13.7 4 Norte 8 Nordeste 0 -- -- 80
2018-05-03 09:00:00 10.9 6 Norte 11 Norte 0 -- -- 96
2018-05-03 08:00:00 8.8 4 Norte 9 Norte 0 -- -- 96
2018-05-03 07:00:00 8.9 6 Norte 9 Norte 0 -- -- 95
2018-05-03 06:00:00 9.2 4 Norte 9 Nordeste 0 -- -- 94
2018-05-03 05:00:00 9.5 5 Norte 8 Norte 0 -- -- 93
2018-05-03 04:00:00 9.6 4 Norte 9 Norte 0 -- -- 92
2018-05-03 03:00:00 10.2 3 Norte 8 Norte 0 -- -- 90
2018-05-03 02:00:00 10.5 3 Norte 8 Norte 0 -- -- 88
2018-05-03 01:00:00 11.5 3 Norte 8 Nordeste 0 -- -- 85
2018-05-03 00:00:00 12.5 4 Norte 6 Norte 0 -- -- 82
2018-05-02 23:00:00 13.3 3 Nordeste 10 Norte 0 -- -- 78
2018-05-02 22:00:00 14.5 4 Norte 12 Norte 0 -- -- 71
2018-05-02 21:00:00 16 6 Noroeste 20 Noroeste 0 -- -- 63
2018-05-02 20:00:00 18.2 8 Noroeste 25 Noroeste 0 -- -- 58
2018-05-02 19:00:00 18.4 17 Noroeste 35 Oeste 0 -- -- 60
2018-05-02 18:00:00 17.8 22 Oeste 33 Oeste 0 -- -- 64
2018-05-02 17:00:00 17.6 26 Oeste 36 Oeste 0 -- -- 66
2018-05-02 16:00:00 17.6 27 Oeste 33 Oeste 0 -- -- 64
2018-05-02 15:00:00 16.8 27 Oeste 37 Oeste 0 -- -- 74
2018-05-02 14:00:00 16.3 28 Oeste 32 Oeste 0 -- -- 77
2018-05-02 13:00:00 16.4 22 Oeste 34 Sudoeste 0 -- -- 76
2018-05-02 12:00:00 16.4 14 Oeste 19 Oeste 0 -- -- 76
2018-05-02 11:00:00 15.4 7 Sudoeste 9 Sudoeste 0 -- -- 80
2018-05-02 10:00:00 13.2 3 Oeste 6 Sudoeste 0 -- -- 93
2018-05-02 09:00:00 10.5 4 Nordeste 8 Norte 0 -- -- 100
2018-05-02 08:00:00 8.2 7 Norte 9 Norte 0 -- -- 100
2018-05-02 07:00:00 8.2 6 Norte 12 Norte 0 -- -- 100
2018-05-02 06:00:00 8.6 4 Norte 7 Nordeste 0 -- -- 99
2018-05-02 05:00:00 8.9 4 Norte 12 Norte 0 -- -- 99
2018-05-02 04:00:00 8.8 5 Norte 12 Nordeste 0 -- -- 98
2018-05-02 03:00:00 9 6 Norte 13 Norte 0 -- -- 96
2018-05-02 02:00:00 9.5 7 Norte 10 Norte 0 -- -- 95
2018-05-02 01:00:00 10.3 5 Norte 11 Oeste 0 -- -- 92
2018-05-02 00:00:00 14 8 Oeste 15 Oeste 0 -- -- 82
2018-05-01 23:00:00 13 5 Oeste 9 Oeste 0 -- -- 86
2018-05-01 22:00:00 12.7 7 Oeste 15 Oeste 0 -- -- 79
2018-05-01 21:00:00 13.2 5 Sur 15 Norte 0 -- -- 77
2018-05-01 20:00:00 13 0 Calma 35 Nordeste 0 -- -- 81
2018-05-01 19:00:00 15.3 23 Norte 40 Nordeste 0 -- -- 66
2018-05-01 18:00:00 17.7 23 Noroeste 41 Oeste 0 -- -- 63
2018-05-01 17:00:00 17.9 24 Noroeste 42 Noroeste 0 -- -- 62
2018-05-01 16:00:00 17.7 23 Noroeste 39 Noroeste 0 -- -- 57
2018-05-01 15:00:00 17.9 22 Noroeste 36 Noroeste 0 -- -- 63
2018-05-01 14:00:00 17.2 19 Noroeste 40 Noroeste 0 -- -- 64
2018-05-01 13:00:00 16.6 17 Noroeste 33 Oeste 0 -- -- 72
2018-05-01 12:00:00 17.3 22 Oeste 31 Oeste 0 -- -- 71
2018-05-01 11:00:00 16.3 7 Sudoeste 21 Oeste 0 -- -- 77
2018-05-01 10:00:00 13.9 6 Nordeste 9 Nordeste 0 -- -- 80
2018-05-01 09:00:00 10.7 4 Nordeste 5 Nordeste 0 -- -- 97
2018-05-01 08:00:00 9.1 0 Calma 4 Nordeste 0 -- -- 98
2018-05-01 07:00:00 8.6 3 Norte 9 Nordeste 0 -- -- 98
2018-05-01 06:00:00 8.8 5 Norte 10 Nordeste 0 -- -- 98
2018-05-01 05:00:00 8.4 7 Nordeste 13 Noroeste 0 -- -- 96
2018-05-01 04:00:00 9.2 6 Norte 9 Norte 0 -- -- 95
2018-05-01 03:00:00 9.8 6 Norte 9 Norte 0 -- -- 93
2018-05-01 02:00:00 11.2 3 Nordeste 8 Este 0 -- -- 91
2018-05-01 01:00:00 11.7 5 Nordeste 12 Norte 0 -- -- 85
2018-05-01 00:00:00 12.9 2 Noroeste 9 Noroeste 0 -- -- 77
2018-04-30 23:00:00 12.9 5 Nordeste 12 Oeste 0 -- -- 76
2018-04-30 22:00:00 13.8 6 Oeste 15 Noroeste 0 -- -- 73
2018-04-30 21:00:00 15.5 10 Noroeste 19 Oeste 0 -- -- 67
2018-04-30 20:00:00 15.9 14 Noroeste 22 Oeste 0 -- -- 64
2018-04-30 19:00:00 16.4 15 Oeste 27 Oeste 0 -- -- 61
2018-04-30 18:00:00 17.9 15 Oeste 26 Noroeste 0 -- -- 62
2018-04-30 17:00:00 17.5 19 Noroeste 33 Noroeste 0 -- -- 56
2018-04-30 16:00:00 18.5 21 Noroeste 34 Oeste 0 -- -- 53
2018-04-30 15:00:00 18.7 21 Oeste 39 Oeste 0 -- -- 53
2018-04-30 14:00:00 18 18 Noroeste 31 Oeste 0 -- -- 54
2018-04-30 13:00:00 18.5 13 Noroeste 25 Oeste 0 -- -- 55
2018-04-30 12:00:00 17.8 7 Norte 18 Norte 0 -- -- 56
2018-04-30 11:00:00 15.3 10 Norte 18 Norte 0 -- -- 65
2018-04-30 10:00:00 13.5 11 Nordeste 17 Nordeste 0 -- -- 74
2018-04-30 09:00:00 10.7 8 Norte 13 Norte 0 -- -- 93
2018-04-30 08:00:00 9.7 5 Norte 11 Nordeste 0 -- -- 96
2018-04-30 07:00:00 9.6 9 Nordeste 13 Nordeste 0 -- -- 96
2018-04-30 06:00:00 10.4 8 Nordeste 10 Nordeste 0 -- -- 93
2018-04-30 05:00:00 11.4 5 Norte 10 Norte 0 -- -- 89
2018-04-30 04:00:00 13.5 10 Noroeste 16 Noroeste 0 -- -- 78
2018-04-30 03:00:00 13.8 10 Noroeste 18 Noroeste 0 -- -- 75
2018-04-30 02:00:00 13.5 10 Oeste 17 Noroeste 0 -- -- 74
2018-04-30 01:00:00 13.5 10 Oeste 17 Oeste 0 -- -- 78
2018-04-30 00:00:00 13.7 12 Noroeste 20 Oeste 0 -- -- 77
2018-04-29 23:00:00 13.9 13 Oeste 19 Noroeste 0 -- -- 74
2018-04-29 22:00:00 14 13 Oeste 21 Oeste 0 -- -- 70
2018-04-29 21:00:00 15.4 15 Noroeste 31 Oeste 0 -- -- 70
2018-04-29 20:00:00 17.8 19 Oeste 39 Oeste 0 -- -- 60
2018-04-29 19:00:00 18 21 Oeste 42 Oeste 0 -- -- 63
2018-04-29 18:00:00 17.5 28 Oeste 39 Oeste 0 -- -- 63
2018-04-29 17:00:00 17.7 29 Oeste 39 Oeste 0 -- -- 63
2018-04-29 16:00:00 17.7 32 Oeste 38 Oeste 0 -- -- 66
2018-04-29 15:00:00 17.1 29 Oeste 39 Oeste 0 -- -- 66
2018-04-29 14:00:00 17.2 21 Oeste 34 Oeste 0 -- -- 64
2018-04-29 13:00:00 17.3 19 Noroeste 43 Noroeste 0 -- -- 66
2018-04-29 12:00:00 16.8 21 Oeste 44 Oeste 0 -- -- 68
2018-04-29 11:00:00 16 20 Noroeste 31 Oeste 0 -- -- 69
2018-04-29 10:00:00 14.6 12 Oeste 22 Oeste 0 -- -- 81
2018-04-29 09:00:00 11.2 11 Noroeste 42 Oeste 1.4 -- -- 98
2018-04-29 08:00:00 11.9 9 Noroeste 18 Noroeste 0 -- -- 85
2018-04-29 07:00:00 11.7 9 Noroeste 40 Noroeste 0.2 -- -- 87
2018-04-29 06:00:00 12.5 15 Oeste 32 Oeste 1 -- -- 88
2018-04-29 05:00:00 12.6 17 Oeste 36 Oeste 0 -- -- 80
2018-04-29 04:00:00 14 28 Oeste 46 Oeste 0 -- -- 84
2018-04-29 03:00:00 14 24 Oeste 47 Oeste 0 -- -- 76
2018-04-29 02:00:00 14.3 24 Oeste 47 Oeste 0 -- -- 80
2018-04-29 01:00:00 14.1 26 Oeste 38 Oeste 0 -- -- 84
2018-04-29 00:00:00 12.9 9 Oeste 36 Noroeste 0.8 -- -- 96
2018-04-28 23:00:00 13.7 21 Oeste 47 Oeste 0.8 -- -- 89
2018-04-28 22:00:00 14.7 16 Oeste 40 Oeste 0 -- -- 82
2018-04-28 21:00:00 15.7 28 Oeste 40 Oeste 0 -- -- 76
2018-04-28 20:00:00 17.3 23 Oeste 31 Oeste 0 -- -- 63
2018-04-28 19:00:00 18.1 17 Oeste 36 Oeste 0 -- -- 61
2018-04-28 18:00:00 17.6 25 Oeste 34 Oeste 0 -- -- 64
2018-04-28 17:00:00 19.2 19 Noroeste 35 Noroeste 0 -- -- 49
2018-04-28 16:00:00 18.6 19 Noroeste 31 Noroeste 0 -- -- 52
2018-04-28 15:00:00 18.5 20 Oeste 33 Noroeste 0 -- -- 53
2018-04-28 14:00:00 18.2 16 Oeste 28 Oeste 0 -- -- 58
2018-04-28 13:00:00 18.7 13 Noroeste 25 Noroeste 0 -- -- 58
2018-04-28 12:00:00 16.6 13 Noroeste 23 Noroeste 0 -- -- 65
2018-04-28 11:00:00 15.8 12 Noroeste 26 Noroeste 0 -- -- 73
2018-04-28 10:00:00 15.7 13 Noroeste 22 Noroeste 0 -- -- 86
2018-04-28 09:00:00 14.9 4 Noroeste 15 Noroeste 0 -- -- 89
2018-04-28 08:00:00 13.7 10 Noroeste 17 Noroeste 0 -- -- 95
2018-04-28 07:00:00 14.2 5 Oeste 9 Noroeste 0 -- -- 98
2018-04-28 06:00:00 13.4 0 Calma 8 Norte 0 -- -- 100
2018-04-28 05:00:00 12.8 5 Norte 8 Norte 0 -- -- 99
2018-04-28 04:00:00 13.7 0 Calma 4 Oeste 0 -- -- 97
2018-04-28 03:00:00 14.5 0 Calma 8 Sudoeste 0 -- -- 97
2018-04-28 02:00:00 15.9 6 Sudoeste 10 Sur 0 -- -- 98
2018-04-28 01:00:00 15.6 8 Sur 9 Sur 0 -- -- 95
2018-04-28 00:00:00 16 5 Sur 7 Sudoeste 0 -- -- 91
2018-04-27 23:00:00 16.5 4 Sur 8 Sudoeste 0 -- -- 87
2018-04-27 22:00:00 16.7 3 Nordeste 10 Oeste 0 -- -- 84
2018-04-27 21:00:00 18.9 3 Norte 18 Oeste 0 -- -- 72
2018-04-27 20:00:00 21.7 5 Noroeste 23 Oeste 0 -- -- 61
2018-04-27 19:00:00 20.4 22 Oeste 31 Oeste 0 -- -- 80
2018-04-27 18:00:00 20.6 23 Oeste 35 Oeste 0 -- -- 82
2018-04-27 17:00:00 20.2 27 Oeste 37 Oeste 0 -- -- 83
2018-04-27 16:00:00 20.5 24 Oeste 30 Sudoeste 0 -- -- 82
2018-04-27 15:00:00 20.3 25 Oeste 34 Oeste 0 -- -- 82
2018-04-27 14:00:00 20.5 22 Oeste 27 Oeste 0 -- -- 79
2018-04-27 13:00:00 20.4 17 Oeste 23 Sudoeste 0 -- -- 78
2018-04-27 12:00:00 20.1 16 Oeste 22 Sudoeste 0 -- -- 76
2018-04-27 11:00:00 20.6 6 Sudoeste 7 Sudoeste 0 -- -- 71
2018-04-27 10:00:00 17.8 4 Nordeste 12 Norte 0 -- -- 80
2018-04-27 09:00:00 15 7 Norte 12 Norte 0 -- -- 92
2018-04-27 08:00:00 13.4 4 Norte 8 Nordeste 0 -- -- 97
2018-04-27 07:00:00 13.3 6 Norte 10 Nordeste 0 -- -- 97
2018-04-27 06:00:00 14 5 Norte 12 Norte 0 -- -- 94
2018-04-27 05:00:00 15.2 7 Norte 15 Noroeste 0 -- -- 88
2018-04-27 04:00:00 15.1 7 Norte 12 Norte 0 -- -- 90
2018-04-27 03:00:00 15.3 6 Norte 13 Noroeste 0 -- -- 91
2018-04-27 02:00:00 15.8 7 Norte 10 Norte 0 -- -- 90
2018-04-27 01:00:00 15.9 6 Norte 10 Norte 0 -- -- 92
2018-04-27 00:00:00 16.5 5 Norte 11 Norte 0 -- -- 91
2018-04-26 23:00:00 17.9 3 Este 8 Este 0 -- -- 84
2018-04-26 22:00:00 17.8 7 Sur 19 Sudeste 0 -- -- 90
2018-04-26 21:00:00 18.9 12 Sur 15 Sur 0 -- -- 87
2018-04-26 20:00:00 21.7 10 Sur 13 Sudoeste 0 -- -- 77
2018-04-26 19:00:00 23 7 Sur 13 Sudoeste 0 -- -- 73
2018-04-26 18:00:00 21.7 11 Sudoeste 17 Sudoeste 0 -- -- 77
2018-04-26 17:00:00 21.6 11 Sudoeste 15 Sudoeste 0 -- -- 76
2018-04-26 16:00:00 21.1 13 Sudoeste 21 Oeste 0 -- -- 79
2018-04-26 15:00:00 20.8 16 Oeste 22 Oeste 0 -- -- 81
2018-04-26 14:00:00 21 15 Sudoeste 19 Sudoeste 0 -- -- 80
2018-04-26 13:00:00 20.7 10 Oeste 13 Oeste 0 -- -- 82
2018-04-26 12:00:00 21.6 7 Sudoeste 10 Sudoeste 0 -- -- 79
2018-04-26 11:00:00 20.6 4 Sur 6 Sur 0 -- -- 81
2018-04-26 10:00:00 18.8 5 Sur 8 Sudeste 0 -- -- 91
2018-04-26 09:00:00 15.9 0 Calma 9 Este 0 -- -- 100
2018-04-26 08:00:00 15 3 Nordeste 8 Norte 0 -- -- 100
2018-04-26 07:00:00 14.3 4 Norte 6 Norte 0 -- -- 100
2018-04-26 06:00:00 15.5 2 Nordeste 12 Sur 0 -- -- 98
2018-04-26 05:00:00 15.9 8 Sudeste 22 Sur 0 -- -- 98
2018-04-26 04:00:00 16.3 20 Sur 29 Sur 0 -- -- 98
2018-04-26 03:00:00 16.5 9 Sudoeste 15 Oeste 0 -- -- 96
2018-04-26 02:00:00 16.8 9 Noroeste 15 Noroeste 0 -- -- 96
2018-04-26 01:00:00 16.9 10 Sudoeste 16 Sudoeste 0 -- -- 96
2018-04-26 00:00:00 16.8 13 Sudoeste 16 Sur 0 -- -- 96
2018-04-25 23:00:00 16.6 8 Sudoeste 11 Sur 0 -- -- 97
2018-04-25 22:00:00 16.6 6 Sudeste 9 Sudeste 0 -- -- 95
2018-04-25 21:00:00 17.5 5 Sudoeste 18 Sudoeste 0 -- -- 91
2018-04-25 20:00:00 19.5 13 Sudoeste 17 Sudoeste 0 -- -- 86
2018-04-25 19:00:00 19.3 12 Sudoeste 19 Sudoeste 0 -- -- 88
2018-04-25 18:00:00 19.7 13 Sudoeste 20 Sudoeste 0 -- -- 86
2018-04-25 17:00:00 20.9 15 Sudoeste 23 Sudoeste 0 -- -- 82
2018-04-25 16:00:00 20.2 13 Sudoeste 17 Sudoeste 0 -- -- 82
2018-04-25 15:00:00 18.4 11 Sur 14 Sudoeste 0 -- -- 89
2018-04-25 14:00:00 18.5 10 Sudoeste 21 Sudoeste 0 -- -- 90
2018-04-25 13:00:00 17.1 20 Sudoeste 30 Sudoeste 0 -- -- 93
2018-04-25 12:00:00 17.5 17 Sudoeste 23 Sudoeste 0 -- -- 90
2018-04-25 11:00:00 18.3 15 Sudoeste 21 Sudoeste 0 -- -- 89
2018-04-25 10:00:00 17.7 13 Sudoeste 20 Sudoeste 0 -- -- 93
2018-04-25 09:00:00 17 17 Sudoeste 22 Sudoeste 0 -- -- 95
2018-04-25 08:00:00 16.5 15 Sudoeste 18 Sudoeste 0 -- -- 95
2018-04-25 07:00:00 16.6 10 Sudoeste 15 Sudoeste 0 -- -- 95
2018-04-25 06:00:00 16.8 8 Sur 14 Sudoeste 0 -- -- 94
2018-04-25 05:00:00 17 13 Sudoeste 15 Sudoeste 0 -- -- 93
2018-04-25 04:00:00 16.6 5 Norte 13 Norte 0 -- -- 88
2018-04-25 03:00:00 16.4 5 Norte 15 Norte 0 -- -- 91
2018-04-25 02:00:00 17.3 5 Norte 14 Noroeste 0 -- -- 85
2018-04-25 01:00:00 17.4 4 Norte 12 Nordeste 0 -- -- 87
2018-04-25 00:00:00 17.8 10 Este 14 Este 0 -- -- 85
2018-04-24 23:00:00 18 9 Oeste 19 Sudoeste 0 -- -- 84
2018-04-24 22:00:00 18.4 14 Sudoeste 18 Sur 0 -- -- 84
2018-04-24 21:00:00 19.8 2 Norte 17 Norte 0 -- -- 75
2018-04-24 20:00:00 20.2 10 Norte 17 Noroeste 0 -- -- 71
2018-04-24 19:00:00 21.3 14 Oeste 20 Oeste 0 -- -- 73
2018-04-24 18:00:00 22.9 16 Oeste 22 Sur 0 -- -- 68
2018-04-24 17:00:00 23.7 19 Sur 28 Sur 0 -- -- 63
2018-04-24 16:00:00 23.8 24 Sur 33 Sur 0 -- -- 60
2018-04-24 15:00:00 23.4 24 Sur 33 Sur 0 -- -- 59
2018-04-24 14:00:00 24.2 24 Sur 43 Sudeste 0 -- -- 58
2018-04-24 13:00:00 23.2 23 Sur 29 Sur 0 -- -- 60
2018-04-24 12:00:00 23.7 15 Sur 28 Sudeste 0 -- -- 57
2018-04-24 11:00:00 22.4 16 Sudeste 26 Este 0 -- -- 62
2018-04-24 10:00:00 19.9 8 Norte 14 Nordeste 0 -- -- 83
2018-04-24 09:00:00 16.3 5 Norte 9 Norte 0 -- -- 94
2018-04-24 08:00:00 14.9 4 Nordeste 10 Norte 0 -- -- 97
2018-04-24 07:00:00 15.2 3 Sudeste 6 Este 0 -- -- 94
2018-04-24 06:00:00 15.7 2 Sur 9 Sur 0 -- -- 91
2018-04-24 05:00:00 15.9 3 Noroeste 12 Norte 0 -- -- 88
2018-04-24 04:00:00 15.9 6 Norte 12 Norte 0 -- -- 89
2018-04-24 03:00:00 16.2 5 Norte 12 Norte 0 -- -- 87
2018-04-24 02:00:00 16.8 7 Norte 11 Norte 0 -- -- 83
2018-04-24 01:00:00 16.9 7 Norte 14 Norte 0 -- -- 82
2018-04-24 00:00:00 17.2 9 Noroeste 13 Noroeste 0 -- -- 79